Terminal Aerodrome Forecast
Issued by NWS

Home | Current Version | Previous Version | Text Only | Print | Product List | Glossary On
Versions: 1 2 3 4 5 6 7 8 9 10 11 12 13 14 15
877
FTUS41 KBTV 011739
TAFRUT
TAF
KRUT 011739Z 0118/0218 14010KT P6SM OVC040
      TEMPO 0118/0122 BKN028 OVC040
     FM020200 12009KT P6SM OVC025
     FM020600 12008KT P6SM VCSH OVC025
     FM021600 13006KT P6SM OVC025
      AMD LTD TO CLD VIS AND WIND=

USA.gov is the U.S. government's official web portal to all federal, state and local government web resources and services.